Time;durP1;ratioP1;P1;durP2;ratioP2;P2;SDS_P1;SDS_P2;PMS_P1;PMS_P2;Temp;Humidity;BMP_temperature;BMP_pressure;BME280_temperature;BME280_humidity;BME280_pressure;Samples;Min_cycle;Max_cycle;Signal;HPM_P1;HPM_P2
2021/07/14 00:01:23;;;;;;;3.70;1.67;;;;;;;22.53;65.96;100510.78;4993172;28;20050;-62
2021/07/14 00:03:53;;;;;;;5.80;1.70;;;;;;;22.46;66.06;100513.31;4992952;28;20046;-63
2021/07/14 00:06:33;;;;;;;2.72;1.50;;;;;;;22.32;66.39;100514.81;4993094;28;20479;-63
2021/07/14 00:09:00;;;;;;;2.47;1.65;;;;;;;22.32;66.53;100514.81;4993043;28;20066;-62
2021/07/14 00:11:29;;;;;;;2.10;1.60;;;;;;;22.28;66.52;100529.53;4993090;28;20106;-62
2021/07/14 00:22:34;;;;;;;3.70;1.60;;;;;;;22.23;67.04;100514.97;4990617;28;20561;-63
2021/07/14 00:25:03;;;;;;;4.15;1.60;;;;;;;22.17;66.96;100511.97;4991895;28;20048;-62
2021/07/14 00:27:30;;;;;;;5.72;1.60;;;;;;;22.10;67.11;100508.31;4992788;28;20081;-63
2021/07/14 00:29:59;;;;;;;2.25;1.65;;;;;;;22.12;66.84;100510.84;4992677;28;20077;-63
2021/07/14 00:32:27;;;;;;;2.97;1.65;;;;;;;22.16;66.92;100509.47;4992765;28;20557;-63
2021/07/14 00:34:57;;;;;;;3.92;1.50;;;;;;;22.10;67.03;100510.16;4992695;28;20046;-65
2021/07/14 00:37:23;;;;;;;2.05;1.48;;;;;;;22.05;66.82;100513.31;4992845;28;20073;-62
2021/07/14 00:39:56;;;;;;;2.78;1.70;;;;;;;22.10;66.82;100502.97;4992836;28;20056;-62
2021/07/14 00:42:27;;;;;;;2.33;1.40;;;;;;;22.12;66.57;100498.28;4992927;28;20050;-66
2021/07/14 00:44:56;;;;;;;4.32;1.40;;;;;;;22.14;66.23;100504.31;4992813;28;20479;-62
2021/07/14 00:47:30;;;;;;;2.22;1.60;;;;;;;22.16;66.13;100506.81;4992814;28;20058;-63
2021/07/14 00:49:58;;;;;;;3.38;2.03;;;;;;;22.09;66.16;100503.94;4996072;28;20050;-62
2021/07/14 00:52:24;;;;;;;2.70;1.77;;;;;;;22.15;65.95;100503.28;4996722;28;20046;-63
2021/07/14 00:54:55;;;;;;;5.13;1.55;;;;;;;22.16;65.71;100504.13;4996415;28;20073;-63
2021/07/14 00:57:25;;;;;;;4.32;1.77;;;;;;;22.16;65.83;100504.97;4996564;28;20087;-63
2021/07/14 00:59:52;;;;;;;3.25;1.70;;;;;;;22.18;65.69;100515.47;4996419;28;20046;-65
2021/07/14 01:02:18;;;;;;;6.55;2.03;;;;;;;22.17;65.71;100509.31;4996385;28;20403;-65
2021/07/14 01:04:51;;;;;;;3.28;1.92;;;;;;;22.16;65.91;100512.97;4996400;28;20042;-63
2021/07/14 01:07:31;;;;;;;4.25;1.92;;;;;;;22.13;66.07;100509.81;4996401;28;20050;-63
2021/07/14 01:10:14;;;;;;;4.05;2.10;;;;;;;22.13;65.86;100521.34;4996094;28;20054;-63
2021/07/14 01:12:52;;;;;;;4.60;1.95;;;;;;;22.13;65.87;100515.16;4996107;28;20043;-62
2021/07/14 01:15:21;;;;;;;5.63;1.80;;;;;;;22.07;65.85;100513.16;4995984;28;20557;-63
2021/07/14 01:17:59;;;;;;;4.20;1.80;;;;;;;22.05;66.21;100509.81;4996106;28;20050;-63
2021/07/14 01:20:28;;;;;;;5.80;2.08;;;;;;;22.07;65.92;100510.47;4995979;28;20069;-62
2021/07/14 01:23:11;;;;;;;2.28;1.50;;;;;;;22.04;65.69;100511.66;4995942;28;20554;-63
2021/07/14 01:26:07;;;;;;;5.95;1.80;;;;;;;22.00;66.13;100513.84;4995965;28;20050;-63
2021/07/14 01:28:35;;;;;;;;;;;;;;;22.00;66.01;100511.16;4996292;28;20050;-62
2021/07/14 01:31:04;;;;;;;4.30;1.60;;;;;;;22.05;65.83;100509.81;4995966;28;19972;-62
2021/07/14 01:33:33;;;;;;;4.65;1.58;;;;;;;22.02;65.74;100514.50;4995758;28;20129;-62
2021/07/14 01:36:07;;;;;;;4.13;1.60;;;;;;;21.98;65.81;100512.34;4995791;28;20097;-63
2021/07/14 01:38:35;;;;;;;3.20;1.92;;;;;;;21.95;66.00;100510.84;4995656;28;20050;-63
2021/07/14 01:41:04;;;;;;;5.03;1.90;;;;;;;21.93;66.39;100511.97;4995742;28;20054;-63
2021/07/14 01:43:41;;;;;;;6.13;1.92;;;;;;;21.89;66.12;100508.84;4995665;28;20054;-62
2021/07/14 01:46:09;;;;;;;3.63;2.00;;;;;;;21.89;66.08;100514.19;4995569;28;20094;-63
2021/07/14 01:48:38;;;;;;;5.28;2.10;;;;;;;21.87;66.26;100505.47;4995487;28;20052;-62
2021/07/14 01:51:06;;;;;;;4.25;1.90;;;;;;;21.84;66.55;100503.97;4995533;28;20454;-62
2021/07/14 01:53:35;;;;;;;2.15;1.67;;;;;;;21.85;66.42;100511.00;4995373;28;20054;-63
2021/07/14 01:56:08;;;;;;;2.55;1.80;;;;;;;21.84;66.39;100506.66;4995325;28;20101;-63
2021/07/14 01:58:40;;;;;;;4.57;1.83;;;;;;;21.83;66.56;100517.50;4995330;28;20054;-63
2021/07/14 02:01:12;;;;;;;3.85;2.00;;;;;;;21.80;66.37;100517.81;4994542;28;20086;-63
2021/07/14 02:03:57;;;;;;;4.57;2.25;;;;;;;21.79;66.88;100518.84;4995245;28;20101;-63
2021/07/14 02:06:24;;;;;;;3.63;1.88;;;;;;;21.77;66.41;100523.50;4995375;28;20046;-62
2021/07/14 02:08:51;;;;;;;4.25;2.00;;;;;;;21.73;66.61;100519.50;4995457;28;20049;-63
2021/07/14 02:11:23;;;;;;;5.25;2.08;;;;;;;21.75;66.49;100528.16;4995151;28;20082;-63
2021/07/14 02:13:52;;;;;;;3.70;1.65;;;;;;;21.76;66.94;100524.50;4994841;28;20487;-62
2021/07/14 02:16:22;;;;;;;3.45;2.00;;;;;;;21.74;66.73;100515.81;4994914;28;20072;-63
2021/07/14 02:18:58;;;;;;;2.78;1.75;;;;;;;21.72;66.88;100518.66;4994916;28;20514;-65
2021/07/14 02:21:26;;;;;;;4.35;2.25;;;;;;;21.66;66.80;100528.19;4994877;28;20093;-65
2021/07/14 02:23:53;;;;;;;3.10;2.17;;;;;;;21.59;67.29;100521.00;4994899;28;20050;-65
2021/07/14 02:26:20;;;;;;;3.03;2.15;;;;;;;21.56;66.94;100527.50;4994929;28;20093;-65
2021/07/14 02:28:46;;;;;;;2.95;2.22;;;;;;;21.54;67.00;100532.94;4994836;28;20101;-65
2021/07/14 02:31:13;;;;;;;5.22;2.78;;;;;;;21.52;66.98;100531.44;4994847;28;20089;-65
2021/07/14 02:33:40;;;;;;;2.67;1.80;;;;;;;21.50;66.60;100536.97;4994907;28;20471;-65
2021/07/14 02:36:12;;;;;;;3.20;2.30;;;;;;;21.51;66.36;100535.97;4994743;28;20043;-65
2021/07/14 02:38:52;;;;;;;3.80;2.22;;;;;;;21.52;66.54;100528.78;4994653;28;20089;-65
2021/07/14 02:41:26;;;;;;;3.72;2.45;;;;;;;21.49;66.65;100531.78;4994487;28;20092;-65
2021/07/14 02:44:01;;;;;;;5.18;2.67;;;;;;;21.47;66.34;100531.09;4994455;28;20054;-65
2021/07/14 02:46:32;;;;;;;5.70;2.75;;;;;;;21.42;66.64;100539.63;4994506;28;20046;-65
2021/07/14 02:49:01;;;;;;;3.08;2.55;;;;;;;21.43;66.71;100549.28;4994423;28;20050;-65
2021/07/14 02:51:33;;;;;;;5.15;2.83;;;;;;;21.36;66.53;100546.44;4994412;28;20054;-63
2021/07/14 02:54:02;;;;;;;6.25;2.80;;;;;;;21.35;66.71;100551.94;4994484;28;20392;-65
2021/07/14 02:56:31;;;;;;;3.80;2.90;;;;;;;21.33;66.36;100552.09;4994334;28;20117;-65
2021/07/14 02:59:05;;;;;;;4.00;2.72;;;;;;;21.33;66.45;100549.44;4994267;28;20050;-65
2021/07/14 03:01:40;;;;;;;4.05;3.20;;;;;;;21.31;66.51;100548.75;4994217;28;20054;-65
2021/07/14 03:04:08;;;;;;;4.40;2.97;;;;;;;21.32;66.96;100561.09;4989907;28;20707;-65
2021/07/14 03:06:38;;;;;;;4.22;3.08;;;;;;;21.34;66.84;100569.81;4990565;28;20074;-63
2021/07/14 03:09:11;;;;;;;4.63;3.15;;;;;;;21.32;66.83;100576.28;4990868;28;20097;-63
2021/07/14 03:11:40;;;;;;;5.18;3.20;;;;;;;21.29;66.94;100585.47;4989955;28;20058;-63
2021/07/14 03:14:10;;;;;;;3.28;2.72;;;;;;;21.28;66.81;100598.94;4990519;28;20061;-63
2021/07/14 03:16:38;;;;;;;4.95;3.08;;;;;;;21.27;66.57;100606.13;4990521;28;20106;-63
2021/07/14 03:19:06;;;;;;;5.03;3.17;;;;;;;21.29;66.67;100601.47;4990537;28;20093;-63
2021/07/14 03:21:35;;;;;;;5.35;3.03;;;;;;;21.27;66.28;100603.47;4990328;28;20050;-63
2021/07/14 03:24:06;;;;;;;6.35;3.60;;;;;;;21.24;66.47;100597.59;4990118;28;20050;-63
2021/07/14 03:26:34;;;;;;;4.07;2.67;;;;;;;21.16;66.25;100588.56;4990147;28;20054;-63
2021/07/14 03:29:02;;;;;;;4.70;3.38;;;;;;;21.18;65.94;100586.56;4990215;28;20050;-63
2021/07/14 03:31:29;;;;;;;7.70;3.78;;;;;;;21.21;65.61;100580.06;4990118;28;20116;-63
2021/07/14 03:33:57;;;;;;;7.70;4.00;;;;;;;21.20;65.63;100595.28;4990049;28;20414;-63
2021/07/14 03:36:24;;;;;;;8.05;4.03;;;;;;;21.24;65.67;100609.09;4990387;28;20058;-63
2021/07/14 03:38:53;;;;;;;9.68;4.60;;;;;;;21.22;65.69;100603.09;4990455;28;20054;-63
2021/07/14 03:41:20;;;;;;;15.35;6.45;;;;;;;21.18;65.62;100609.78;4990187;28;20561;-63
2021/07/14 03:43:49;;;;;;;12.77;5.57;;;;;;;21.16;65.51;100617.09;4989930;28;20050;-63
2021/07/14 03:46:17;;;;;;;14.90;6.07;;;;;;;21.15;65.24;100620.75;4990162;28;20047;-63
2021/07/14 03:48:45;;;;;;;19.42;7.30;;;;;;;21.20;65.21;100618.44;4989956;28;20061;-62
2021/07/14 03:51:12;;;;;;;12.90;6.63;;;;;;;21.19;64.99;100608.75;4989724;28;20105;-63
2021/07/14 03:53:40;;;;;;;11.07;5.65;;;;;;;21.18;64.81;100617.78;4989639;28;20050;-63
2021/07/14 03:56:07;;;;;;;11.00;5.18;;;;;;;21.14;65.13;100614.59;4989754;28;20093;-63
2021/07/14 03:58:35;;;;;;;10.13;5.30;;;;;;;21.17;64.72;100616.91;4989668;28;20415;-63
2021/07/14 04:01:02;;;;;;;9.57;4.43;;;;;;;21.14;64.88;100619.06;4989843;28;20054;-62
2021/07/14 04:03:29;;;;;;;7.95;3.50;;;;;;;21.16;64.84;100611.75;4989583;28;20093;-63
2021/07/14 04:06:00;;;;;;;5.43;3.63;;;;;;;21.17;65.32;100616.09;4989627;28;20113;-63
2021/07/14 04:08:40;;;;;;;7.78;3.80;;;;;;;21.16;65.53;100614.41;4989692;28;20046;-63
2021/07/14 04:11:06;;;;;;;10.80;3.70;;;;;;;21.14;65.70;100611.91;4989642;28;20054;-64
2021/07/14 04:13:34;;;;;;;7.07;2.97;;;;;;;21.13;65.66;100599.56;4989449;28;20116;-63
2021/07/14 04:16:01;;;;;;;9.65;3.47;;;;;;;21.18;66.05;100604.44;4989434;28;20450;-63
2021/07/14 04:18:28;;;;;;;4.82;3.10;;;;;;;21.25;65.98;100597.44;4989341;28;20133;-63
2021/07/14 04:20:55;;;;;;;7.93;2.95;;;;;;;21.30;65.93;100597.78;4989601;28;20104;-63
2021/07/14 04:23:21;;;;;;;3.65;2.55;;;;;;;21.33;65.92;100601.97;4989226;28;20050;-63
2021/07/14 04:25:48;;;;;;;5.00;3.50;;;;;;;21.34;65.80;100623.19;4989152;28;20073;-63
2021/07/14 04:28:15;;;;;;;9.48;3.10;;;;;;;21.34;65.93;100633.00;4989376;28;20499;-63
2021/07/14 04:30:42;;;;;;;5.93;2.72;;;;;;;21.39;65.39;100640.53;4989320;28;20109;-63
2021/07/14 04:33:11;;;;;;;7.97;3.30;;;;;;;21.35;65.74;100629.34;4989222;28;20490;-63
2021/07/14 04:35:42;;;;;;;5.32;2.83;;;;;;;21.37;65.64;100630.84;4989434;28;20058;-63
2021/07/14 04:38:09;;;;;;;4.47;3.00;;;;;;;21.37;66.08;100630.84;4989190;28;20042;-63
2021/07/14 04:40:36;;;;;;;7.13;3.38;;;;;;;21.39;65.93;100624.53;4989126;28;20077;-63
2021/07/14 04:43:03;;;;;;;6.30;3.13;;;;;;;21.40;66.12;100627.03;4989107;28;20479;-63
2021/07/14 04:45:29;;;;;;;4.65;3.35;;;;;;;21.39;66.44;100624.53;4989261;28;20462;-63
2021/07/14 04:47:56;;;;;;;6.82;3.28;;;;;;;21.40;66.63;100620.88;4989146;28;20055;-63
2021/07/14 04:50:23;;;;;;;5.00;2.80;;;;;;;21.40;66.46;100608.34;4989305;28;20055;-63
2021/07/14 04:52:49;;;;;;;6.05;2.70;;;;;;;21.43;66.69;100613.34;4989148;28;20054;-63
2021/07/14 04:55:16;;;;;;;5.53;2.78;;;;;;;21.44;66.67;100624.88;4989271;28;20085;-63
2021/07/14 04:57:42;;;;;;;4.35;2.20;;;;;;;21.40;66.43;100624.34;4989157;28;20073;-63
2021/07/14 05:00:09;;;;;;;4.97;2.00;;;;;;;21.39;66.65;100624.53;4989386;28;20051;-63
2021/07/14 05:02:36;;;;;;;4.53;2.13;;;;;;;21.39;66.14;100621.84;4989182;28;20051;-63
2021/07/14 05:05:04;;;;;;;4.30;2.40;;;;;;;21.44;65.98;100625.69;4989131;28;20495;-63
2021/07/14 05:07:31;;;;;;;3.22;2.10;;;;;;;21.48;65.82;100621.72;4988937;28;20109;-63
2021/07/14 05:09:57;;;;;;;4.75;2.72;;;;;;;21.53;65.89;100619.41;4988997;28;20125;-63
2021/07/14 05:12:24;;;;;;;7.43;3.20;;;;;;;21.59;66.08;100623.28;4989151;28;20070;-63
2021/07/14 05:14:51;;;;;;;7.32;3.15;;;;;;;21.66;65.67;100629.66;4988953;28;20050;-62
2021/07/14 05:17:18;;;;;;;7.22;3.22;;;;;;;21.71;66.07;100625.66;4989034;28;20042;-64
2021/07/14 05:19:44;;;;;;;8.70;3.25;;;;;;;21.76;65.65;100628.69;4988987;28;20069;-63
2021/07/14 05:22:11;;;;;;;8.73;3.95;;;;;;;21.85;65.70;100619.66;4989319;28;20062;-63
2021/07/14 05:24:38;;;;;;;8.23;3.35;;;;;;;21.89;65.59;100623.72;4988881;28;20042;-63
2021/07/14 05:27:04;;;;;;;4.43;2.95;;;;;;;21.97;65.42;100634.41;4988832;28;20105;-63
2021/07/14 05:29:31;;;;;;;6.15;3.10;;;;;;;22.04;64.99;100639.91;4988689;28;20055;-63
2021/07/14 05:31:58;;;;;;;7.95;3.20;;;;;;;22.04;65.16;100639.91;4988635;28;20415;-63
2021/07/14 05:34:24;;;;;;;7.15;3.10;;;;;;;22.08;65.34;100648.44;4989076;28;20109;-63
2021/07/14 05:36:51;;;;;;;6.25;3.30;;;;;;;22.07;65.05;100644.09;4991809;28;20105;-63
2021/07/14 05:39:18;;;;;;;5.53;2.80;;;;;;;22.08;65.10;100641.28;4992312;28;20129;-63
2021/07/14 05:41:48;;;;;;;4.45;2.97;;;;;;;22.08;65.07;100643.94;4992486;28;20066;-63
2021/07/14 05:44:14;;;;;;;7.10;3.10;;;;;;;22.13;65.08;100638.09;4992292;28;20058;-63
2021/07/14 05:46:45;;;;;;;4.10;3.17;;;;;;;22.18;64.64;100647.28;4991897;28;20066;-63
2021/07/14 05:49:12;;;;;;;5.82;2.85;;;;;;;22.22;64.58;100644.28;4992155;28;20047;-63
2021/07/14 05:51:39;;;;;;;8.10;2.90;;;;;;;22.28;63.90;100644.47;4991783;28;20105;-63
2021/07/14 05:54:05;;;;;;;7.15;3.20;;;;;;;22.35;63.64;100648.13;4991906;28;20046;-64
2021/07/14 05:56:32;;;;;;;6.07;3.10;;;;;;;22.46;63.19;100647.00;4991859;28;20046;-63
2021/07/14 05:58:58;;;;;;;5.75;3.15;;;;;;;22.49;63.27;100651.19;4992033;28;20104;-63
2021/07/14 06:01:25;;;;;;;6.90;3.33;;;;;;;22.43;63.61;100643.81;4992042;28;20050;-63
2021/07/14 06:03:52;;;;;;;4.97;3.53;;;;;;;22.40;63.57;100646.81;4991900;28;20070;-63
2021/07/14 06:06:18;;;;;;;9.88;3.67;;;;;;;22.39;63.64;100647.84;4991760;28;20046;-63
2021/07/14 06:08:45;;;;;;;7.43;3.60;;;;;;;22.35;63.93;100648.13;4991938;28;20054;-63
2021/07/14 06:11:14;;;;;;;5.88;3.88;;;;;;;22.31;63.61;100641.44;4991778;28;20121;-63
2021/07/14 06:13:41;;;;;;;5.85;3.85;;;;;;;22.29;63.76;100646.13;4991544;28;20104;-64
2021/07/14 06:16:08;;;;;;;6.15;3.70;;;;;;;22.27;63.75;100644.59;4991423;28;20063;-63
2021/07/14 06:18:35;;;;;;;8.30;4.10;;;;;;;22.26;64.16;100637.59;4991682;28;20051;-63
2021/07/14 06:21:02;;;;;;;5.88;3.97;;;;;;;22.25;64.39;100650.13;4991577;28;20077;-63
2021/07/14 06:23:28;;;;;;;7.63;3.78;;;;;;;22.27;64.45;100656.16;4991523;28;20051;-63
2021/07/14 06:25:55;;;;;;;8.10;4.50;;;;;;;22.25;64.37;100654.66;4991116;28;20073;-63
2021/07/14 06:28:22;;;;;;;8.20;4.40;;;;;;;22.21;64.67;100661.31;4991436;28;20063;-63
2021/07/14 06:30:49;;;;;;;8.43;4.47;;;;;;;22.24;64.56;100666.34;4991281;28;20112;-63
2021/07/14 06:33:16;;;;;;;8.93;5.15;;;;;;;22.25;64.69;100678.72;4991420;28;20078;-63
2021/07/14 06:35:44;;;;;;;7.53;4.57;;;;;;;22.21;64.77;100672.84;4991359;28;20086;-63
2021/07/14 06:38:10;;;;;;;7.07;4.32;;;;;;;22.20;65.12;100679.19;4991111;28;20042;-63
2021/07/14 06:40:38;;;;;;;6.75;4.03;;;;;;;22.20;65.23;100675.69;4991270;28;20046;-63
2021/07/14 06:43:13;;;;;;;8.13;4.18;;;;;;;22.23;65.32;100673.50;4991266;28;20106;-63
2021/07/14 06:45:44;;;;;;;10.65;4.68;;;;;;;22.25;65.50;100678.72;4991234;28;20414;-63
2021/07/14 06:48:11;;;;;;;9.10;4.30;;;;;;;22.24;65.82;100683.19;4990729;28;20148;-63
2021/07/14 06:50:38;;;;;;;4.90;3.88;;;;;;;22.26;65.50;100685.69;4990761;28;20435;-64
2021/07/14 06:53:07;;;;;;;10.00;4.65;;;;;;;22.24;65.54;100683.19;4990888;28;20046;-63
2021/07/14 06:55:34;;;;;;;7.45;4.18;;;;;;;22.23;65.89;100684.19;4990865;28;20107;-64
2021/07/14 06:58:01;;;;;;;6.90;4.13;;;;;;;22.28;65.42;100687.25;4990682;28;20042;-63
2021/07/14 07:00:35;;;;;;;10.32;4.25;;;;;;;22.31;65.41;100688.75;4990764;28;20547;-63
2021/07/14 07:03:02;;;;;;;9.55;4.78;;;;;;;22.37;65.53;100695.28;4990598;28;20052;-64
2021/07/14 07:05:28;;;;;;;7.55;4.38;;;;;;;22.41;65.52;100694.81;4990865;28;20108;-63
2021/07/14 07:07:57;;;;;;;7.95;4.60;;;;;;;22.44;65.57;100691.78;4990805;28;20137;-63
2021/07/14 07:10:24;;;;;;;7.05;4.30;;;;;;;22.48;65.27;100695.78;4990465;28;20089;-64
2021/07/14 07:12:51;;;;;;;9.35;4.72;;;;;;;22.53;65.51;100697.97;4990451;28;20484;-63
2021/07/14 07:15:18;;;;;;;6.75;4.72;;;;;;;22.56;65.51;100702.97;4990298;28;20499;-63
2021/07/14 07:17:46;;;;;;;6.47;4.63;;;;;;;22.55;65.92;100704.00;4990559;28;20538;-63
2021/07/14 07:20:16;;;;;;;6.43;4.50;;;;;;;22.59;65.83;100704.47;4990627;28;20042;-63
2021/07/14 07:22:44;;;;;;;5.82;4.90;;;;;;;22.60;65.80;100706.16;4990333;28;20488;-63
2021/07/14 07:25:12;;;;;;;7.82;5.20;;;;;;;22.64;65.90;100705.66;4990409;28;20092;-63
2021/07/14 07:27:42;;;;;;;9.38;5.30;;;;;;;22.64;66.08;100705.66;4990277;28;20100;-63
2021/07/14 07:30:10;;;;;;;7.50;4.57;;;;;;;22.52;66.27;100707.00;4990542;28;20051;-63
2021/07/14 07:32:37;;;;;;;5.20;3.92;;;;;;;22.57;65.96;100710.00;4990337;28;20054;-64
2021/07/14 07:35:05;;;;;;;8.20;4.20;;;;;;;22.63;65.11;100708.50;4990332;28;20109;-63
2021/07/14 07:37:32;;;;;;;8.35;4.47;;;;;;;22.65;65.32;100707.34;4990339;28;20054;-64
2021/07/14 07:39:58;;;;;;;8.68;4.80;;;;;;;22.66;65.00;100714.38;4990044;28;20097;-63
2021/07/14 07:42:25;;;;;;;8.15;5.45;;;;;;;22.66;65.38;100714.38;4989970;28;20482;-64
2021/07/14 07:44:52;;;;;;;6.05;4.25;;;;;;;22.69;65.22;100723.91;4989880;28;20050;-64
2021/07/14 07:47:19;;;;;;;9.35;5.35;;;;;;;22.68;65.63;100722.22;4989899;28;20050;-64
2021/07/14 07:49:46;;;;;;;9.98;4.72;;;;;;;22.69;65.32;100723.03;4989923;28;20132;-64
2021/07/14 07:52:25;;;;;;;7.55;5.22;;;;;;;22.82;65.08;100726.88;4989718;28;20050;-64
2021/07/14 07:54:52;;;;;;;10.20;4.88;;;;;;;22.93;64.78;100731.06;4989617;28;20050;-64
2021/07/14 07:57:19;;;;;;;6.45;4.72;;;;;;;23.04;64.43;100734.41;4989830;28;20054;-63
2021/07/14 07:59:45;;;;;;;8.68;4.38;;;;;;;23.12;64.37;100729.03;4989231;28;20054;-64
2021/07/14 08:02:12;;;;;;;7.85;4.95;;;;;;;23.09;64.55;100742.75;4990054;28;20085;-63
2021/07/14 08:04:38;;;;;;;7.20;4.93;;;;;;;23.03;64.16;100741.59;4989555;28;20050;-63
2021/07/14 08:07:05;;;;;;;9.48;5.55;;;;;;;22.93;64.36;100747.13;4989501;28;20046;-63
2021/07/14 08:09:31;;;;;;;7.50;5.22;;;;;;;22.95;64.27;100755.00;4989303;28;20073;-63
2021/07/14 08:11:59;;;;;;;8.00;5.13;;;;;;;22.96;64.20;100756.66;4989533;28;20050;-63
2021/07/14 08:14:25;;;;;;;9.35;5.78;;;;;;;22.97;64.44;100753.00;4989734;28;20553;-63
2021/07/14 08:16:52;;;;;;;9.20;5.80;;;;;;;22.95;64.64;100758.50;4989255;28;20054;-63
2021/07/14 08:19:23;;;;;;;10.85;5.60;;;;;;;22.99;64.43;100759.00;4989341;28;20507;-63
2021/07/14 08:21:49;;;;;;;9.27;5.80;;;;;;;23.05;64.72;100761.00;4989398;28;20058;-63
2021/07/14 08:24:17;;;;;;;10.18;6.03;;;;;;;23.04;64.38;100767.34;4989688;28;20454;-63
2021/07/14 08:26:43;;;;;;;10.38;5.78;;;;;;;23.05;64.20;100766.34;4989323;28;20046;-63
2021/07/14 08:29:30;;;;;;;7.78;5.57;;;;;;;23.03;64.24;100773.69;4989210;28;20633;-63
2021/07/14 08:31:56;;;;;;;6.55;5.32;;;;;;;22.99;64.48;100767.03;4989207;28;20105;-64
2021/07/14 08:34:23;;;;;;;8.50;5.45;;;;;;;22.93;64.67;100773.91;4989418;28;20446;-64
2021/07/14 08:36:50;;;;;;;8.38;5.70;;;;;;;22.92;64.92;100777.56;4989467;28;20058;-64
2021/07/14 08:39:17;;;;;;;8.35;5.55;;;;;;;22.88;65.14;100781.59;4989386;28;20127;-63
2021/07/14 08:41:44;;;;;;;8.75;5.85;;;;;;;22.83;65.28;100783.94;4989226;28;20557;-64
2021/07/14 08:44:14;;;;;;;8.68;5.35;;;;;;;22.82;65.15;100782.25;4989433;28;20046;-63
2021/07/14 08:46:41;;;;;;;11.73;5.78;;;;;;;22.83;65.42;100779.41;4989128;28;20458;-63
2021/07/14 08:49:08;;;;;;;8.88;5.40;;;;;;;22.91;65.25;100781.25;4989170;28;20046;-63
2021/07/14 08:51:37;;;;;;;8.13;5.35;;;;;;;23.00;65.19;100776.72;4989159;28;20113;-64
2021/07/14 08:54:04;;;;;;;7.55;5.57;;;;;;;22.96;65.50;100789.59;4989278;28;20554;-63
2021/07/14 08:56:32;;;;;;;6.97;4.53;;;;;;;22.90;65.34;100792.13;4988988;28;20042;-64
2021/07/14 08:59:00;;;;;;;8.20;4.35;;;;;;;22.87;65.59;100784.41;4988122;28;20510;-64
2021/07/14 09:01:30;;;;;;;4.60;4.00;;;;;;;22.86;65.16;100796.97;4988983;28;20100;-63
2021/07/14 09:03:58;;;;;;;5.10;3.80;;;;;;;22.81;65.15;100793.94;4989210;28;20051;-63
2021/07/14 09:06:25;;;;;;;6.55;3.78;;;;;;;22.78;65.05;100797.78;4989004;28;20145;-64
2021/07/14 09:08:52;;;;;;;4.97;3.47;;;;;;;22.88;64.90;100799.47;4988863;28;20100;-64
2021/07/14 09:11:18;;;;;;;5.60;3.70;;;;;;;22.85;65.28;100803.31;4992787;28;20050;-64
2021/07/14 09:13:46;;;;;;;6.10;3.50;;;;;;;23.01;64.91;100805.16;4992701;28;20206;-63
2021/07/14 09:16:48;;;;;;;13.60;4.05;;;;;;;23.03;65.27;100795.13;4992443;28;20392;-64
2021/07/14 09:19:21;;;;;;;5.15;4.35;;;;;;;23.11;65.21;100797.81;4970919;28;20500;-63
2021/07/14 09:21:48;;;;;;;5.70;4.13;;;;;;;23.16;65.20;100800.03;4989241;28;20125;-63
2021/07/14 09:24:31;;;;;;;7.18;4.30;;;;;;;23.27;65.29;100794.31;4992456;28;20124;-64
2021/07/14 09:27:00;;;;;;;7.40;3.90;;;;;;;23.37;64.73;100799.47;4992744;28;20454;-63
2021/07/14 09:29:27;;;;;;;5.18;4.10;;;;;;;23.45;64.34;100804.84;4992772;28;20562;-64
2021/07/14 09:31:55;;;;;;;8.02;4.10;;;;;;;23.46;64.02;100805.66;4992357;28;20121;-63
2021/07/14 09:34:26;;;;;;;5.95;3.88;;;;;;;23.48;63.94;100809.00;4992327;28;20046;-63
2021/07/14 09:37:02;;;;;;;6.90;3.90;;;;;;;23.54;63.58;100812.84;4992374;28;20054;-64
2021/07/14 09:39:47;;;;;;;6.10;3.90;;;;;;;23.58;63.56;100806.97;4992530;28;20133;-64
2021/07/14 09:42:13;;;;;;;6.35;3.63;;;;;;;23.58;63.48;100808.81;4992039;28;20097;-64
2021/07/14 09:44:44;;;;;;;6.15;3.65;;;;;;;23.58;63.33;100814.16;4991993;28;20054;-63
2021/07/14 09:47:22;;;;;;;7.45;3.97;;;;;;;23.60;63.44;100820.19;4992212;28;20415;-64
2021/07/14 09:49:49;;;;;;;6.30;3.25;;;;;;;23.55;63.37;100825.22;4992078;28;20343;-64
2021/07/14 09:52:21;;;;;;;7.32;2.65;;;;;;;23.60;62.92;100825.56;4992044;28;20766;-63
2021/07/14 09:54:49;;;;;;;4.80;2.10;;;;;;;23.69;61.99;100823.69;4992063;28;20054;-64
2021/07/14 09:57:17;;;;;;;5.07;1.65;;;;;;;23.78;60.87;100818.16;4992198;28;20054;-63
2021/07/14 09:59:46;;;;;;;4.95;2.33;;;;;;;23.89;59.80;100816.91;4992106;28;20085;-64
2021/07/14 10:02:15;;;;;;;3.15;1.95;;;;;;;23.89;59.68;100822.28;4991939;28;20434;-64
2021/07/14 10:04:44;;;;;;;4.80;1.95;;;;;;;23.98;58.99;100824.97;4991739;28;20510;-64
2021/07/14 10:07:18;;;;;;;5.13;2.47;;;;;;;23.91;58.86;100831.03;4991853;28;20113;-64
2021/07/14 10:09:46;;;;;;;6.00;1.85;;;;;;;23.86;58.16;100832.50;4991781;28;20437;-64
2021/07/14 10:12:36;;;;;;;4.97;2.63;;;;;;;23.89;57.46;100846.41;4991852;28;20141;-63
2021/07/14 10:15:15;;;;;;;5.63;2.80;;;;;;;23.96;57.66;100842.06;4991820;28;20062;-64
2021/07/14 10:17:52;;;;;;;7.30;2.40;;;;;;;23.96;57.89;100834.03;4991604;28;20053;-64
2021/07/14 10:20:22;;;;;;;4.22;1.92;;;;;;;23.90;57.75;100853.44;4991586;28;20065;-63
2021/07/14 10:22:59;;;;;;;5.10;2.25;;;;;;;24.01;57.29;100846.91;4990793;28;20092;-64
2021/07/14 10:25:26;;;;;;;5.93;2.30;;;;;;;24.10;56.98;100851.22;4991792;28;20046;-64
2021/07/14 10:27:55;;;;;;;5.97;2.47;;;;;;;24.17;56.76;100851.38;4991421;28;20475;-63
2021/07/14 10:30:23;;;;;;;4.43;2.05;;;;;;;24.18;56.24;100852.22;4991630;28;20050;-63
2021/07/14 10:32:51;;;;;;;6.15;2.67;;;;;;;24.16;56.09;100862.28;4991289;28;20210;-63
2021/07/14 10:35:22;;;;;;;7.35;2.00;;;;;;;24.16;55.52;100857.72;4991224;28;20495;-63
2021/07/14 10:38:27;;;;;;;4.40;2.10;;;;;;;24.07;55.27;100864.97;4991378;28;20165;-64
2021/07/14 10:41:01;;;;;;;2.90;1.13;;;;;;;24.04;55.31;100876.06;4991115;28;20531;-63
2021/07/14 10:43:31;;;;;;;3.60;1.08;;;;;;;24.20;54.57;100868.94;4991248;28;20481;-63
2021/07/14 10:46:20;;;;;;;2.85;0.80;;;;;;;24.32;53.45;100877.47;4990872;28;20499;-63
2021/07/14 10:48:47;;;;;;;5.40;1.20;;;;;;;24.32;52.62;100872.09;4991027;28;20046;-63
2021/07/14 10:51:13;;;;;;;4.05;0.95;;;;;;;24.39;52.01;100870.38;4990922;28;20120;-64
2021/07/14 10:53:44;;;;;;;3.70;1.10;;;;;;;24.37;51.34;100869.72;4990793;28;20105;-64
2021/07/14 10:56:13;;;;;;;2.80;0.77;;;;;;;24.33;50.62;100874.59;4991146;28;20102;-64
2021/07/14 10:58:45;;;;;;;2.40;0.82;;;;;;;24.13;50.65;100866.97;4990958;28;20051;-63
2021/07/14 11:01:12;;;;;;;4.95;1.20;;;;;;;24.05;50.30;100872.38;4990753;28;20046;-64
2021/07/14 11:03:44;;;;;;;3.85;1.20;;;;;;;24.01;49.86;100863.00;4990602;28;20054;-64
2021/07/14 11:06:16;;;;;;;3.83;0.90;;;;;;;24.06;49.30;100868.69;4990743;28;20462;-64
2021/07/14 11:08:44;;;;;;;3.58;0.77;;;;;;;24.19;49.38;100854.72;4990681;28;20050;-64
2021/07/14 11:11:12;;;;;;;8.15;1.02;;;;;;;24.46;48.60;100856.09;4990757;28;20077;-64
2021/07/14 11:13:44;;;;;;;5.45;1.10;;;;;;;24.58;47.91;100861.91;4990555;28;20539;-63
2021/07/14 11:16:31;;;;;;;3.00;0.80;;;;;;;24.77;47.36;100866.03;4990420;28;20526;-63
2021/07/14 11:19:00;;;;;;;2.45;0.82;;;;;;;25.11;46.57;100861.25;4990678;28;20114;-64
2021/07/14 11:21:52;;;;;;;4.32;1.02;;;;;;;25.44;45.92;100863.66;4990531;28;20054;-63
2021/07/14 11:24:37;;;;;;;2.58;0.85;;;;;;;25.57;45.71;100869.28;4990350;28;20046;-64
2021/07/14 11:27:19;;;;;;;1.65;0.70;;;;;;;25.55;45.41;100857.84;4990379;28;20458;-63
2021/07/14 11:29:46;;;;;;;2.05;0.80;;;;;;;26.28;43.62;100854.53;4990314;28;20463;-63
2021/07/14 11:32:34;;;;;;;4.00;0.95;;;;;;;26.29;43.70;100850.84;4990231;28;20043;-63
2021/07/14 11:35:33;;;;;;;2.22;0.82;;;;;;;27.38;41.47;100854.44;4990187;28;20057;-63
2021/07/14 11:38:02;;;;;;;2.63;0.80;;;;;;;27.93;40.41;100849.19;4990065;28;20077;-64
2021/07/14 11:40:35;;;;;;;2.50;0.90;;;;;;;28.23;39.75;100848.97;4990080;28;20047;-64
2021/07/14 11:43:09;;;;;;;5.07;0.85;;;;;;;28.69;39.16;100831.25;4990034;28;20065;-64
2021/07/14 11:45:38;;;;;;;4.20;1.27;;;;;;;28.98;38.69;100832.75;4989956;28;20054;-64